createdAt,value
2023-03-31T00:01:41.940Z,5.22
2023-03-31T00:04:13.606Z,6.22
2023-03-31T00:06:42.029Z,5.43
2023-03-31T00:09:13.253Z,5.97
2023-03-31T00:11:40.472Z,5.78
2023-03-31T00:14:07.571Z,6.07
2023-03-31T00:16:35.679Z,6.13
2023-03-31T00:19:02.254Z,5.72
2023-03-31T00:21:29.740Z,5.47
2023-03-31T00:23:58.113Z,6.78
2023-03-31T00:26:24.811Z,4.38
2023-03-31T00:28:51.388Z,5.28
2023-03-31T00:31:19.030Z,6.13
2023-03-31T00:33:46.961Z,5.68
2023-03-31T00:36:17.817Z,4.80
2023-03-31T00:38:46.313Z,4.53
2023-03-31T00:41:12.879Z,7.20
2023-03-31T00:43:39.477Z,5.63
2023-03-31T00:46:07.333Z,5.70
2023-03-31T00:48:34.975Z,4.90
2023-03-31T00:51:04.922Z,5.63
2023-03-31T00:53:32.107Z,6.32
2023-03-31T00:56:01.703Z,4.97
2023-03-31T00:58:29.024Z,5.65
2023-03-31T01:00:57.330Z,4.57
2023-03-31T01:03:24.066Z,5.65
2023-03-31T01:05:54.361Z,4.47
2023-03-31T01:08:24.398Z,4.78
2023-03-31T01:10:52.990Z,6.53
2023-03-31T01:13:19.636Z,6.15
2023-03-31T01:15:46.203Z,4.97
2023-03-31T01:18:13.273Z,4.70
2023-03-31T01:20:59.065Z,4.82
2023-03-31T01:24:03.684Z,3.75
2023-03-31T01:27:04.565Z,4.50
2023-03-31T01:29:59.045Z,4.97
2023-03-31T01:32:28.531Z,4.90
2023-03-31T01:35:36.795Z,4.78
2023-03-31T01:38:13.489Z,4.68
2023-03-31T01:40:52.111Z,5.68
2023-03-31T01:43:52.267Z,5.85
2023-03-31T01:46:19.301Z,5.53
2023-03-31T01:48:54.430Z,4.57
2023-03-31T01:51:31.487Z,3.55
2023-03-31T01:54:16.781Z,4.18
2023-03-31T01:56:53.954Z,5.22
2023-03-31T01:59:30.219Z,4.75
2023-03-31T02:02:08.259Z,4.45
2023-03-31T02:04:38.461Z,4.75
2023-03-31T02:07:09.873Z,3.97
2023-03-31T02:09:38.792Z,4.68
2023-03-31T02:12:07.765Z,4.55
2023-03-31T02:14:34.364Z,4.05
2023-03-31T02:17:02.296Z,5.32
2023-03-31T02:19:31.835Z,4.75
2023-03-31T02:21:58.366Z,3.97
2023-03-31T02:24:25.874Z,3.50
2023-03-31T02:27:07.448Z,4.57
2023-03-31T02:29:34.287Z,5.00
2023-03-31T02:32:40.192Z,4.93
2023-03-31T02:35:08.240Z,4.25
2023-03-31T02:37:34.802Z,4.38
2023-03-31T02:40:04.976Z,4.05
2023-03-31T02:42:31.624Z,4.97
2023-03-31T02:45:06.011Z,3.85
2023-03-31T02:47:32.714Z,4.03
2023-03-31T02:50:00.428Z,4.60
2023-03-31T02:52:51.747Z,3.50
2023-03-31T02:55:47.277Z,3.40
2023-03-31T02:58:42.163Z,4.75
2023-03-31T03:01:41.327Z,4.40
2023-03-31T03:04:45.643Z,4.68
2023-03-31T03:07:26.635Z,4.47
2023-03-31T03:10:19.172Z,4.25
2023-03-31T03:12:51.015Z,4.00
2023-03-31T03:15:21.633Z,4.25
2023-03-31T03:17:48.585Z,5.70
2023-03-31T03:20:16.070Z,4.47
2023-03-31T03:22:42.664Z,3.22
2023-03-31T03:25:11.564Z,3.33
2023-03-31T03:27:38.461Z,4.18
2023-03-31T03:30:06.541Z,5.20
2023-03-31T03:32:33.679Z,5.50
2023-03-31T03:35:01.168Z,4.38
2023-03-31T03:37:28.302Z,4.88
2023-03-31T03:39:54.920Z,3.42
2023-03-31T03:42:21.465Z,4.28
2023-03-31T03:44:48.011Z,3.97
2023-03-31T03:47:14.612Z,3.67
2023-03-31T03:49:41.128Z,3.85
2023-03-31T03:52:07.709Z,3.22
2023-03-31T03:54:34.266Z,3.47
2023-03-31T03:57:00.912Z,3.70
2023-03-31T03:59:27.617Z,3.90
2023-03-31T04:01:54.214Z,3.20
2023-03-31T04:04:20.888Z,4.25
2023-03-31T04:06:47.460Z,3.55
2023-03-31T04:09:14.017Z,4.13
2023-03-31T04:11:40.660Z,3.95
2023-03-31T04:14:07.213Z,4.88
2023-03-31T04:16:34.539Z,4.05
2023-03-31T04:19:03.769Z,3.15
2023-03-31T04:21:34.544Z,3.28
2023-03-31T04:24:07.136Z,3.50
2023-03-31T04:26:42.963Z,2.92
2023-03-31T04:29:13.856Z,3.45
2023-03-31T04:31:43.877Z,4.00
2023-03-31T04:34:14.736Z,4.10
2023-03-31T04:36:48.555Z,3.42
2023-03-31T04:39:16.540Z,3.70
2023-03-31T04:41:43.147Z,4.45
2023-03-31T04:44:09.686Z,4.25
2023-03-31T04:46:36.221Z,3.78
2023-03-31T04:49:02.917Z,3.75
2023-03-31T04:51:29.496Z,4.43
2023-03-31T04:53:56.037Z,4.20
2023-03-31T04:56:22.857Z,4.50
2023-03-31T04:58:49.427Z,3.80
2023-03-31T05:01:18.511Z,3.05
2023-03-31T05:03:47.825Z,5.22
2023-03-31T05:06:15.631Z,5.57
2023-03-31T05:08:42.240Z,4.63
2023-03-31T05:11:08.814Z,2.88
2023-03-31T05:13:35.671Z,5.05
2023-03-31T05:16:14.451Z,5.47
2023-03-31T05:18:41.627Z,4.50
2023-03-31T05:21:15.476Z,3.67
2023-03-31T05:23:42.137Z,3.30
2023-03-31T05:26:09.102Z,3.97
2023-03-31T05:28:35.964Z,4.47
2023-03-31T05:31:03.032Z,3.35
2023-03-31T05:33:29.970Z,4.13
2023-03-31T05:35:56.612Z,4.00
2023-03-31T05:38:23.227Z,3.17
2023-03-31T05:40:49.809Z,3.80
2023-03-31T05:43:16.416Z,4.07
2023-03-31T05:45:43.038Z,4.10
2023-03-31T05:48:09.716Z,2.85
2023-03-31T05:50:36.302Z,2.80
2023-03-31T05:53:02.935Z,3.38
2023-03-31T05:55:30.756Z,2.88
2023-03-31T05:57:59.087Z,2.83
2023-03-31T06:00:25.976Z,3.13
2023-03-31T06:02:52.612Z,3.67
2023-03-31T06:05:19.242Z,2.78
2023-03-31T06:07:45.795Z,4.63
2023-03-31T06:10:12.369Z,2.67
2023-03-31T06:12:38.948Z,2.22
2023-03-31T06:15:06.062Z,3.47
2023-03-31T06:17:32.853Z,4.22
2023-03-31T06:19:59.423Z,3.35
2023-03-31T06:22:25.967Z,3.08
2023-03-31T06:24:52.550Z,2.17
2023-03-31T06:27:19.165Z,2.65
2023-03-31T06:29:45.787Z,3.35
2023-03-31T06:32:12.383Z,2.83
2023-03-31T06:34:38.943Z,3.47
2023-03-31T06:37:05.843Z,3.08
2023-03-31T06:39:32.449Z,2.85
2023-03-31T06:41:59.021Z,3.60
2023-03-31T06:44:27.939Z,3.85
2023-03-31T06:46:54.996Z,2.95
2023-03-31T06:49:21.594Z,4.05
2023-03-31T06:51:48.160Z,3.17
2023-03-31T06:54:14.807Z,3.05
2023-03-31T06:56:41.357Z,2.10
2023-03-31T06:59:07.905Z,2.78
2023-03-31T07:01:37.341Z,3.88
2023-03-31T07:04:04.642Z,3.25
2023-03-31T07:06:31.361Z,4.00
2023-03-31T07:08:58.021Z,3.42
2023-03-31T07:11:24.936Z,3.08
2023-03-31T07:13:51.582Z,3.58
2023-03-31T07:16:18.240Z,3.22
2023-03-31T07:18:45.250Z,3.25
2023-03-31T07:21:11.995Z,3.50
2023-03-31T07:23:38.757Z,2.60
2023-03-31T07:26:06.397Z,3.90
2023-03-31T07:28:33.171Z,2.85
2023-03-31T07:30:59.831Z,2.80
2023-03-31T07:33:26.422Z,4.60
2023-03-31T07:36:03.901Z,3.50
2023-03-31T07:38:37.987Z,2.65
2023-03-31T07:41:09.268Z,2.60
2023-03-31T07:43:36.846Z,3.17
2023-03-31T07:46:05.317Z,3.05
2023-03-31T07:48:32.498Z,3.25
2023-03-31T07:50:59.040Z,2.85
2023-03-31T07:53:31.565Z,3.83
2023-03-31T07:55:58.285Z,2.97
2023-03-31T07:58:24.911Z,2.65
2023-03-31T08:00:51.638Z,3.35
2023-03-31T08:03:18.289Z,2.63
2023-03-31T08:05:44.960Z,2.63
2023-03-31T08:08:11.625Z,2.80
2023-03-31T08:10:38.225Z,5.35
2023-03-31T08:13:05.169Z,3.40
2023-03-31T08:15:31.748Z,4.72
2023-03-31T08:17:58.402Z,4.53
2023-03-31T08:20:25.069Z,5.10
2023-03-31T08:22:52.121Z,5.20
2023-03-31T08:25:18.725Z,6.57
2023-03-31T08:27:46.683Z,12.68
2023-03-31T08:30:13.733Z,8.82
2023-03-31T08:32:40.437Z,8.02
2023-03-31T08:35:07.762Z,7.85
2023-03-31T08:37:34.783Z,10.63
2023-03-31T08:40:01.522Z,5.90
2023-03-31T08:42:31.047Z,5.85
2023-03-31T08:45:15.243Z,6.85
2023-03-31T08:47:41.943Z,5.78
2023-03-31T08:50:13.270Z,6.38
2023-03-31T08:52:53.061Z,7.75
2023-03-31T08:55:25.916Z,5.55
2023-03-31T08:58:06.708Z,6.32
2023-03-31T09:00:40.472Z,8.68
2023-03-31T09:03:29.315Z,7.15
2023-03-31T09:06:00.506Z,5.95
2023-03-31T09:08:37.444Z,5.22
2023-03-31T09:11:13.999Z,6.10
2023-03-31T09:13:49.703Z,6.07
2023-03-31T09:16:43.063Z,5.80
2023-03-31T09:19:41.399Z,4.80
2023-03-31T09:22:16.270Z,6.47
2023-03-31T09:24:51.966Z,5.93
2023-03-31T09:27:18.628Z,4.93
2023-03-31T09:29:51.392Z,4.25
2023-03-31T09:32:20.253Z,5.32
2023-03-31T09:34:47.853Z,6.70
2023-03-31T09:37:14.472Z,5.70
2023-03-31T09:39:41.332Z,5.30
2023-03-31T09:42:12.715Z,5.40
2023-03-31T09:44:43.651Z,6.25
2023-03-31T09:47:15.124Z,11.98
2023-03-31T09:49:41.874Z,4.93
2023-03-31T09:52:31.676Z,5.57
2023-03-31T09:55:00.632Z,4.50
2023-03-31T09:57:33.730Z,4.05
2023-03-31T10:00:14.364Z,4.20
2023-03-31T10:02:50.889Z,6.75
2023-03-31T10:05:34.136Z,7.70
2023-03-31T10:10:36.381Z,7.40
2023-03-31T10:13:02.942Z,5.38
2023-03-31T10:15:29.593Z,5.28
2023-03-31T10:17:58.275Z,5.10
2023-03-31T10:20:32.397Z,6.18
2023-03-31T10:23:03.550Z,5.35
2023-03-31T10:25:30.168Z,7.28
2023-03-31T10:27:56.832Z,5.60
2023-03-31T10:30:24.909Z,6.13
2023-03-31T10:32:54.074Z,5.47
2023-03-31T10:35:32.544Z,4.43
2023-03-31T10:38:03.874Z,5.53
2023-03-31T10:40:32.627Z,4.88
2023-03-31T10:43:19.446Z,6.60
2023-03-31T10:45:50.676Z,4.82
2023-03-31T10:48:33.836Z,5.43
2023-03-31T10:53:51.591Z,4.75
2023-03-31T10:56:27.368Z,3.63
2023-03-31T10:59:12.563Z,4.68
2023-03-31T11:01:54.157Z,4.95
2023-03-31T11:04:43.328Z,5.68
2023-03-31T11:07:49.547Z,5.15
2023-03-31T11:10:34.999Z,4.85
2023-03-31T11:13:07.445Z,4.32
2023-03-31T11:15:37.054Z,5.85
2023-03-31T11:18:11.280Z,4.05
2023-03-31T11:20:42.202Z,4.90
2023-03-31T11:23:30.248Z,4.22
2023-03-31T11:26:02.167Z,6.32
2023-03-31T11:28:28.728Z,4.13
2023-03-31T11:31:23.263Z,5.45
2023-03-31T11:34:17.822Z,3.85
2023-03-31T11:36:50.339Z,5.18
2023-03-31T11:39:54.832Z,5.20
2023-03-31T11:42:22.593Z,5.38
2023-03-31T11:44:53.073Z,6.45
2023-03-31T11:47:20.948Z,5.22
2023-03-31T11:50:02.976Z,4.53
2023-03-31T11:52:39.401Z,3.67
2023-03-31T11:55:16.820Z,4.22
2023-03-31T11:58:04.455Z,5.28
2023-03-31T12:00:46.804Z,5.05
2023-03-31T12:03:14.195Z,3.90
2023-03-31T12:06:02.846Z,3.35
2023-03-31T12:08:41.827Z,4.88
2023-03-31T12:11:11.339Z,5.65
2023-03-31T12:14:08.896Z,6.63
2023-03-31T12:16:55.968Z,3.55
2023-03-31T12:19:34.066Z,5.00
2023-03-31T12:22:39.204Z,3.55
2023-03-31T12:25:06.484Z,4.95
2023-03-31T12:27:36.039Z,7.43
2023-03-31T12:30:14.679Z,4.63
2023-03-31T12:33:02.351Z,4.15
2023-03-31T12:35:33.403Z,6.75
2023-03-31T12:38:31.037Z,5.82
2023-03-31T12:41:15.413Z,4.93
2023-03-31T12:43:51.194Z,3.78
2023-03-31T12:46:39.560Z,3.20
2023-03-31T12:49:37.135Z,4.88
2023-03-31T12:52:45.445Z,3.78
2023-03-31T12:55:28.846Z,6.63
2023-03-31T12:58:34.808Z,3.95
2023-03-31T13:01:16.682Z,5.82
2023-03-31T13:04:17.562Z,4.55
2023-03-31T13:06:46.688Z,3.83
2023-03-31T13:09:13.226Z,3.83
2023-03-31T13:11:47.687Z,4.65
2023-03-31T13:14:17.890Z,3.67
2023-03-31T13:16:44.730Z,4.40
2023-03-31T13:19:43.861Z,6.78
2023-03-31T13:22:27.980Z,4.53
2023-03-31T13:24:54.698Z,6.07
2023-03-31T13:27:30.492Z,6.43
2023-03-31T13:29:57.112Z,4.93
2023-03-31T13:32:25.538Z,3.83
2023-03-31T13:35:06.896Z,2.97
2023-03-31T13:37:50.349Z,5.05
2023-03-31T13:40:35.579Z,4.70
2023-03-31T13:43:22.822Z,4.15
2023-03-31T13:46:10.303Z,4.43
2023-03-31T13:48:59.128Z,4.25
2023-03-31T13:51:25.671Z,3.88
2023-03-31T13:54:10.537Z,3.35
2023-03-31T13:56:43.855Z,3.53
2023-03-31T13:59:31.130Z,4.82
2023-03-31T14:02:28.077Z,3.50
2023-03-31T14:05:03.747Z,5.28
2023-03-31T14:07:44.297Z,3.90
2023-03-31T14:10:33.418Z,4.00
2023-03-31T14:13:12.373Z,4.20
2023-03-31T14:15:51.612Z,4.20
2023-03-31T14:18:33.560Z,4.05
2023-03-31T14:21:17.817Z,3.75
2023-03-31T14:23:49.941Z,3.17
2023-03-31T14:26:35.165Z,4.37
2023-03-31T14:29:13.662Z,4.45
2023-03-31T14:31:53.036Z,3.03
2023-03-31T14:34:34.552Z,3.30
2023-03-31T14:37:03.199Z,3.35
2023-03-31T14:39:32.316Z,3.42
2023-03-31T14:42:16.044Z,6.57
2023-03-31T14:44:46.901Z,2.80
2023-03-31T14:47:29.190Z,4.03
2023-03-31T14:50:01.173Z,3.95
2023-03-31T14:52:30.481Z,4.50
2023-03-31T14:54:57.035Z,2.53
2023-03-31T14:57:34.383Z,2.90
2023-03-31T15:00:01.359Z,3.28
2023-03-31T15:02:33.218Z,5.05
2023-03-31T15:05:03.003Z,1.80
2023-03-31T15:07:29.741Z,3.72
2023-03-31T15:09:56.387Z,4.05
2023-03-31T15:12:23.568Z,3.08
2023-03-31T15:14:51.871Z,3.33
2023-03-31T15:17:42.019Z,3.55
2023-03-31T15:20:38.062Z,3.33
2023-03-31T15:23:18.525Z,3.22
2023-03-31T15:25:45.287Z,4.03
2023-03-31T15:28:12.742Z,4.15
2023-03-31T15:30:39.378Z,5.80
2023-03-31T15:33:18.874Z,6.50
2023-03-31T15:35:46.251Z,7.82
2023-03-31T15:38:16.300Z,5.88
2023-03-31T15:40:44.062Z,6.40
2023-03-31T15:45:52.353Z,5.03
2023-03-31T15:48:24.221Z,3.83
2023-03-31T15:50:51.838Z,3.22
2023-03-31T15:53:30.698Z,3.65
2023-03-31T15:55:59.949Z,5.50
2023-03-31T15:58:55.844Z,4.45
2023-03-31T16:01:23.235Z,3.25
2023-03-31T16:03:52.876Z,4.03
2023-03-31T16:06:27.559Z,4.00
2023-03-31T16:09:21.107Z,3.67
2023-03-31T16:11:57.506Z,4.60
2023-03-31T16:14:38.233Z,4.85
2023-03-31T16:17:11.943Z,12.40
2023-03-31T16:19:48.171Z,18.00
2023-03-31T16:22:18.166Z,7.47
2023-03-31T16:24:45.026Z,8.23
2023-03-31T16:27:11.772Z,10.07
2023-03-31T16:29:39.041Z,7.32
2023-03-31T16:32:17.019Z,8.07
2023-03-31T16:34:56.307Z,41.95
2023-03-31T16:37:23.389Z,73.53
2023-03-31T16:39:50.483Z,17.58
2023-03-31T16:42:17.425Z,16.10
2023-03-31T16:44:49.948Z,12.30
2023-03-31T16:47:34.507Z,11.50
2023-03-31T16:50:07.347Z,12.93
2023-03-31T16:52:34.782Z,14.05
2023-03-31T16:55:01.968Z,13.00
2023-03-31T16:57:28.742Z,12.10
2023-03-31T17:02:42.936Z,12.38
2023-03-31T17:05:13.230Z,10.05
2023-03-31T17:07:40.877Z,11.25
2023-03-31T17:10:08.449Z,11.43
2023-03-31T17:12:36.398Z,10.52
2023-03-31T17:15:03.470Z,12.20
2023-03-31T17:17:34.526Z,11.75
2023-03-31T17:20:01.991Z,8.80
2023-03-31T17:22:29.767Z,8.57
2023-03-31T17:24:59.334Z,8.20
2023-03-31T17:27:27.408Z,9.45
2023-03-31T17:29:54.467Z,7.82
2023-03-31T17:32:22.009Z,8.93
2023-03-31T17:34:49.165Z,8.32
2023-03-31T17:37:20.224Z,10.05
2023-03-31T17:39:52.193Z,8.55
2023-03-31T17:42:20.333Z,8.23
2023-03-31T17:44:50.016Z,6.72
2023-03-31T17:47:18.072Z,8.77
2023-03-31T17:49:44.783Z,10.02
2023-03-31T17:52:11.727Z,9.98
2023-03-31T17:54:38.405Z,6.88
2023-03-31T17:57:05.098Z,9.32
2023-03-31T17:59:31.874Z,8.10
2023-03-31T18:01:59.071Z,10.10
2023-03-31T18:04:26.145Z,6.95
2023-03-31T18:06:52.846Z,8.07
2023-03-31T18:09:20.503Z,7.95
2023-03-31T18:11:47.272Z,8.05
2023-03-31T18:14:14.522Z,7.35
2023-03-31T18:16:41.700Z,9.68
2023-03-31T18:19:09.037Z,8.23
2023-03-31T18:21:36.934Z,6.95
2023-03-31T18:24:03.721Z,7.55
2023-03-31T18:26:30.656Z,9.43
2023-03-31T18:28:57.288Z,6.47
2023-03-31T18:31:26.829Z,7.00
2023-03-31T18:33:54.724Z,10.27
2023-03-31T18:36:22.119Z,7.32
2023-03-31T18:38:49.368Z,6.95
2023-03-31T18:41:16.154Z,7.13
2023-03-31T18:43:43.449Z,8.15
2023-03-31T18:46:10.796Z,8.23
2023-03-31T18:48:38.497Z,6.32
2023-03-31T18:51:05.172Z,6.93
2023-03-31T18:53:31.987Z,6.68
2023-03-31T18:55:58.972Z,8.13
2023-03-31T18:58:26.491Z,6.85
2023-03-31T19:00:53.193Z,7.57
2023-03-31T19:03:20.017Z,6.70
2023-03-31T19:05:46.811Z,6.72
2023-03-31T19:08:13.518Z,6.22
2023-03-31T19:10:40.188Z,6.88
2023-03-31T19:13:07.661Z,7.53
2023-03-31T19:15:37.045Z,6.40
2023-03-31T19:18:04.186Z,6.75
2023-03-31T19:20:31.050Z,5.60
2023-03-31T19:22:57.769Z,5.82
2023-03-31T19:25:24.459Z,6.22
2023-03-31T19:27:51.655Z,6.53
2023-03-31T19:30:20.314Z,5.50
2023-03-31T19:32:48.786Z,5.57
2023-03-31T19:35:18.768Z,6.43
2023-03-31T19:37:46.050Z,6.60
2023-03-31T19:40:13.033Z,4.47
2023-03-31T19:42:42.064Z,6.45
2023-03-31T19:45:09.166Z,5.35
2023-03-31T19:47:35.950Z,5.32
2023-03-31T19:50:02.670Z,6.03
2023-03-31T19:52:29.669Z,5.53
2023-03-31T19:54:56.367Z,5.78
2023-03-31T19:57:23.188Z,5.15
2023-03-31T19:59:49.956Z,4.65
2023-03-31T20:02:16.690Z,5.47
2023-03-31T20:04:43.825Z,7.22
2023-03-31T20:07:10.509Z,4.40
2023-03-31T20:09:37.758Z,5.60
2023-03-31T20:12:04.466Z,4.97
2023-03-31T20:14:31.096Z,4.68
2023-03-31T20:17:00.883Z,7.57
2023-03-31T20:19:27.762Z,6.00
2023-03-31T20:21:55.917Z,3.55
2023-03-31T20:24:23.272Z,5.60
2023-03-31T20:26:49.962Z,4.93
2023-03-31T20:29:16.593Z,5.28
2023-03-31T20:31:43.290Z,5.07
2023-03-31T20:34:14.984Z,6.57
2023-03-31T20:36:42.490Z,7.25
2023-03-31T20:39:09.238Z,6.13
2023-03-31T20:41:37.241Z,6.35
2023-03-31T20:44:05.035Z,4.55
2023-03-31T20:46:31.752Z,5.82
2023-03-31T20:48:58.621Z,4.28
2023-03-31T20:51:27.774Z,8.23
2023-03-31T20:53:54.735Z,4.25
2023-03-31T20:56:25.949Z,4.55
2023-03-31T20:58:57.457Z,5.65
2023-03-31T21:01:24.828Z,6.43
2023-03-31T21:03:51.974Z,4.43
2023-03-31T21:06:18.803Z,4.90
2023-03-31T21:08:46.312Z,4.55
2023-03-31T21:11:13.528Z,5.40
2023-03-31T21:13:40.158Z,4.85
2023-03-31T21:16:06.958Z,4.28
2023-03-31T21:18:34.008Z,5.53
2023-03-31T21:21:05.836Z,4.57
2023-03-31T21:23:32.568Z,4.20
2023-03-31T21:26:00.796Z,6.25
2023-03-31T21:28:29.096Z,4.45
2023-03-31T21:31:01.907Z,4.40
2023-03-31T21:33:29.642Z,5.28
2023-03-31T21:35:59.186Z,5.13
2023-03-31T21:38:26.235Z,3.78
2023-03-31T21:40:54.339Z,4.97
2023-03-31T21:43:21.474Z,3.85
2023-03-31T21:45:48.473Z,4.95
2023-03-31T21:48:15.072Z,5.35
2023-03-31T21:50:41.792Z,4.22
2023-03-31T21:53:08.490Z,3.70
2023-03-31T21:55:35.856Z,4.00
2023-03-31T21:58:02.495Z,3.50
2023-03-31T22:00:29.118Z,4.00
2023-03-31T22:03:06.363Z,4.68
2023-03-31T22:05:42.198Z,4.88
2023-03-31T22:08:08.794Z,3.90
2023-03-31T22:10:35.466Z,6.13
2023-03-31T22:13:02.047Z,4.30
2023-03-31T22:15:28.623Z,4.97
2023-03-31T22:17:55.949Z,5.00
2023-03-31T22:20:22.550Z,3.53
2023-03-31T22:22:50.001Z,4.72
2023-03-31T22:25:16.600Z,4.30
2023-03-31T22:27:43.203Z,3.13
2023-03-31T22:30:10.163Z,3.78
2023-03-31T22:32:39.553Z,3.58
2023-03-31T22:35:06.698Z,3.53
2023-03-31T22:37:33.310Z,3.65
2023-03-31T22:39:59.907Z,3.53
2023-03-31T22:42:26.845Z,4.25
2023-03-31T22:44:53.417Z,4.82
2023-03-31T22:47:20.301Z,7.45
2023-03-31T22:49:46.957Z,3.78
2023-03-31T22:52:13.689Z,3.42
2023-03-31T22:54:40.947Z,3.25
2023-03-31T22:57:08.019Z,3.65
2023-03-31T22:59:35.121Z,5.65
2023-03-31T23:02:01.748Z,4.00
2023-03-31T23:04:28.445Z,4.03
2023-03-31T23:06:55.196Z,4.15
2023-03-31T23:09:23.626Z,3.55
2023-03-31T23:11:50.565Z,3.45
2023-03-31T23:14:17.143Z,4.07
2023-03-31T23:16:43.769Z,3.63
2023-03-31T23:19:12.154Z,3.05
2023-03-31T23:21:38.783Z,3.72
2023-03-31T23:24:05.637Z,3.97
2023-03-31T23:26:33.036Z,4.15
2023-03-31T23:28:59.689Z,3.47
2023-03-31T23:31:28.121Z,4.10
2023-03-31T23:33:54.733Z,4.13
2023-03-31T23:36:21.679Z,4.13
2023-03-31T23:38:48.860Z,5.35
2023-03-31T23:41:16.006Z,3.90
2023-03-31T23:43:42.617Z,4.30
2023-03-31T23:46:09.349Z,4.65
2023-03-31T23:48:36.641Z,3.30
2023-03-31T23:51:04.343Z,2.42
2023-03-31T23:53:30.927Z,3.65
2023-03-31T23:55:59.058Z,2.75
2023-03-31T23:58:26.223Z,3.90
